createdAt,value
2022-08-01T00:00:38.260Z,48.08
2022-08-01T00:03:06.013Z,47.90
2022-08-01T00:05:33.470Z,47.80
2022-08-01T00:08:00.824Z,47.85
2022-08-01T00:10:28.691Z,48.13
2022-08-01T00:12:55.943Z,48.46
2022-08-01T00:15:23.195Z,48.30
2022-08-01T00:17:50.451Z,48.25
2022-08-01T00:20:17.635Z,48.16
2022-08-01T00:22:44.960Z,48.46
2022-08-01T00:25:12.205Z,48.67
2022-08-01T00:27:39.467Z,48.72
2022-08-01T00:30:11.290Z,48.25
2022-08-01T00:32:44.407Z,48.67
2022-08-01T00:35:12.102Z,48.98
2022-08-01T00:37:39.325Z,49.05
2022-08-01T00:40:07.902Z,49.21
2022-08-01T00:42:37.155Z,49.28
2022-08-01T00:45:08.454Z,49.85
2022-08-01T00:47:35.802Z,50.36
2022-08-01T00:50:05.873Z,49.75
2022-08-01T00:52:34.823Z,48.86
2022-08-01T00:55:02.578Z,48.52
2022-08-01T00:58:02.203Z,48.12
2022-08-01T01:00:18.686Z,48.16
2022-08-01T01:02:54.542Z,48.41
2022-08-01T01:05:22.105Z,48.41
2022-08-01T01:07:57.649Z,48.48
2022-08-01T01:11:02.315Z,48.52
2022-08-01T01:13:36.795Z,49.00
2022-08-01T01:16:20.699Z,49.10
2022-08-01T01:18:54.163Z,49.37
2022-08-01T01:21:22.603Z,49.40
2022-08-01T01:24:16.595Z,49.56
2022-08-01T01:26:49.512Z,49.64
2022-08-01T01:29:27.082Z,49.65
2022-08-01T01:32:05.633Z,50.00
2022-08-01T01:34:39.412Z,50.89
2022-08-01T01:37:12.281Z,49.95
2022-08-01T01:39:45.276Z,49.42
2022-08-01T01:42:22.348Z,49.03
2022-08-01T01:44:51.278Z,48.93
2022-08-01T01:47:19.222Z,48.87
2022-08-01T01:49:50.147Z,49.08
2022-08-01T01:52:19.691Z,49.37
2022-08-01T01:54:53.046Z,49.49
2022-08-01T01:57:22.392Z,50.08
2022-08-01T01:59:52.150Z,49.85
2022-08-01T02:02:20.784Z,50.56
2022-08-01T02:04:49.847Z,50.73
2022-08-01T02:07:23.858Z,51.14
2022-08-01T02:09:53.873Z,51.68
2022-08-01T02:12:25.530Z,51.15
2022-08-01T02:14:54.717Z,50.17
2022-08-01T02:17:23.140Z,49.86
2022-08-01T02:19:50.698Z,49.41
2022-08-01T02:22:28.763Z,49.35
2022-08-01T02:25:05.128Z,49.67
2022-08-01T02:27:43.094Z,49.63
2022-08-01T02:30:13.604Z,49.48
2022-08-01T02:33:16.122Z,49.58
2022-08-01T02:36:29.805Z,49.29
2022-08-01T02:38:38.906Z,49.67
2022-08-01T02:41:14.712Z,49.35
2022-08-01T02:43:47.052Z,49.53
2022-08-01T02:46:36.440Z,49.50
2022-08-01T02:49:08.341Z,49.38
2022-08-01T02:51:37.563Z,49.11
2022-08-01T02:54:08.012Z,49.02
2022-08-01T02:56:37.090Z,49.01
2022-08-01T02:59:13.778Z,48.39
2022-08-01T03:01:44.672Z,47.83
2022-08-01T03:04:12.869Z,47.45
2022-08-01T03:06:41.333Z,47.03
2022-08-01T03:09:14.220Z,46.67
2022-08-01T03:11:46.452Z,46.32
2022-08-01T03:14:15.495Z,45.87
2022-08-01T03:16:46.885Z,45.39
2022-08-01T03:19:15.224Z,44.64
2022-08-01T03:21:44.727Z,43.85
2022-08-01T03:24:14.245Z,43.11
2022-08-01T03:26:43.019Z,42.57
2022-08-01T03:29:17.338Z,42.05
2022-08-01T03:31:47.559Z,42.34
2022-08-01T03:34:14.959Z,41.75
2022-08-01T03:37:04.939Z,41.37
2022-08-01T03:39:37.292Z,39.92
2022-08-01T03:42:14.111Z,39.84
2022-08-01T03:44:42.630Z,38.35
2022-08-01T03:47:11.417Z,38.08
2022-08-01T03:49:46.054Z,37.83
2022-08-01T03:52:15.240Z,37.15
2022-08-01T03:54:48.499Z,36.88
2022-08-01T03:57:35.643Z,36.00
2022-08-01T04:00:10.409Z,35.43
2022-08-01T04:02:41.391Z,35.64
2022-08-01T04:05:09.128Z,35.29
2022-08-01T04:07:41.247Z,35.20
2022-08-01T04:10:09.323Z,34.69
2022-08-01T04:12:36.575Z,34.92
2022-08-01T04:15:05.225Z,34.49
2022-08-01T04:17:32.511Z,33.94
2022-08-01T04:19:59.660Z,33.79
2022-08-01T04:22:27.772Z,32.68
2022-08-01T04:24:58.439Z,32.56
2022-08-01T04:27:51.554Z,31.18
2022-08-01T04:30:22.259Z,30.77
2022-08-01T04:32:51.707Z,30.00
2022-08-01T04:35:23.466Z,29.45
2022-08-01T04:38:11.159Z,29.25
2022-08-01T04:40:39.217Z,28.81
2022-08-01T04:43:07.086Z,28.47
2022-08-01T04:45:35.401Z,28.16
2022-08-01T04:48:03.329Z,27.16
2022-08-01T04:50:30.685Z,26.17
2022-08-01T04:52:58.452Z,25.58
2022-08-01T04:55:25.598Z,24.70
2022-08-01T04:57:52.952Z,23.00
2022-08-01T05:00:20.106Z,23.02
2022-08-01T05:02:47.970Z,22.85
2022-08-01T05:05:16.078Z,22.78
2022-08-01T05:07:45.114Z,22.13
2022-08-01T05:10:13.322Z,21.48
2022-08-01T05:12:40.462Z,21.28
2022-08-01T05:15:13.149Z,21.06
2022-08-01T05:17:45.509Z,20.41
2022-08-01T05:20:13.581Z,19.78
2022-08-01T05:22:41.447Z,19.65
2022-08-01T05:25:09.320Z,19.34
2022-08-01T05:27:42.544Z,19.12
2022-08-01T05:30:10.986Z,19.15
2022-08-01T05:32:39.299Z,18.71
2022-08-01T05:35:07.640Z,19.04
2022-08-01T05:37:35.042Z,19.01
2022-08-01T05:40:03.066Z,18.64
2022-08-01T05:42:30.215Z,18.88
2022-08-01T05:44:57.575Z,18.89
2022-08-01T05:47:25.031Z,18.21
2022-08-01T05:49:52.279Z,18.15
2022-08-01T05:52:19.531Z,17.99
2022-08-01T05:54:46.727Z,18.24
2022-08-01T05:57:14.826Z,18.16
2022-08-01T05:59:42.571Z,17.29
2022-08-01T06:02:10.133Z,17.63
2022-08-01T06:04:37.737Z,17.15
2022-08-01T06:07:04.990Z,16.62
2022-08-01T06:09:32.360Z,16.51
2022-08-01T06:11:59.599Z,16.23
2022-08-01T06:14:26.957Z,16.60
2022-08-01T06:16:54.304Z,16.29
2022-08-01T06:19:21.453Z,16.81
2022-08-01T06:21:48.811Z,16.96
2022-08-01T06:24:16.070Z,16.76
2022-08-01T06:26:43.722Z,16.32
2022-08-01T06:29:10.884Z,16.15
2022-08-01T06:31:39.572Z,16.00
2022-08-01T06:34:06.708Z,16.08
2022-08-01T06:36:33.960Z,15.99
2022-08-01T06:39:01.108Z,15.85
2022-08-01T06:41:28.257Z,15.95
2022-08-01T06:43:55.515Z,16.54
2022-08-01T06:48:29.022Z,17.72
2022-08-01T06:51:09.213Z,16.85
2022-08-01T06:53:38.223Z,16.80
2022-08-01T06:56:07.317Z,17.03
2022-08-01T06:58:35.770Z,17.56
2022-08-01T07:01:07.219Z,18.45
2022-08-01T07:03:53.431Z,19.17
2022-08-01T07:06:26.793Z,20.05
2022-08-01T07:08:54.655Z,20.83
2022-08-01T07:11:23.649Z,21.84
2022-08-01T07:13:51.413Z,22.89
2022-08-01T07:16:19.279Z,23.85
2022-08-01T07:18:46.641Z,24.76
2022-08-01T07:21:38.368Z,25.17
2022-08-01T07:24:01.208Z,24.97
2022-08-01T07:26:28.667Z,24.96
2022-08-01T07:28:56.237Z,26.10
2022-08-01T07:31:26.535Z,26.86
2022-08-01T07:33:55.853Z,27.29
2022-08-01T07:36:23.103Z,27.89
2022-08-01T07:38:50.356Z,28.38
2022-08-01T07:41:17.603Z,28.81
2022-08-01T07:43:54.382Z,29.04
2022-08-01T07:46:24.496Z,29.38
2022-08-01T07:48:51.791Z,29.20
2022-08-01T07:51:18.999Z,29.18
2022-08-01T07:53:46.152Z,29.04
2022-08-01T07:56:13.403Z,29.22
2022-08-01T07:58:40.655Z,29.56
2022-08-01T08:01:08.112Z,29.29
2022-08-01T08:03:35.367Z,29.52
2022-08-01T08:06:02.616Z,29.47
2022-08-01T08:08:30.383Z,29.23
2022-08-01T08:10:57.530Z,28.73
2022-08-01T08:13:24.682Z,28.46
2022-08-01T08:15:52.035Z,28.31
2022-08-01T08:18:19.286Z,28.80
2022-08-01T08:20:46.744Z,29.89
2022-08-01T08:23:42.052Z,29.98
2022-08-01T08:26:12.277Z,30.83
2022-08-01T08:28:40.627Z,30.22
2022-08-01T08:31:24.929Z,30.19
2022-08-01T08:33:53.384Z,30.37
2022-08-01T08:36:20.537Z,30.24
2022-08-01T08:38:48.093Z,30.06
2022-08-01T08:41:20.689Z,30.49
2022-08-01T08:43:48.743Z,30.47
2022-08-01T08:46:17.324Z,30.85
2022-08-01T08:48:45.548Z,30.94
2022-08-01T08:51:14.491Z,31.58
2022-08-01T08:53:45.781Z,31.82
2022-08-01T08:56:15.041Z,32.47
2022-08-01T08:58:44.924Z,32.95
2022-08-01T09:01:13.681Z,32.88
2022-08-01T09:03:41.982Z,32.66
2022-08-01T09:06:09.372Z,33.06
2022-08-01T09:08:36.928Z,32.84
2022-08-01T09:11:05.826Z,33.17
2022-08-01T09:13:33.173Z,33.30
2022-08-01T09:16:00.329Z,33.58
2022-08-01T09:18:44.880Z,33.80
2022-08-01T09:21:20.638Z,33.37
2022-08-01T09:23:55.359Z,33.30
2022-08-01T09:26:30.219Z,33.49
2022-08-01T09:29:00.485Z,34.15
2022-08-01T09:31:38.306Z,34.51
2022-08-01T09:34:06.627Z,34.12
2022-08-01T09:36:47.459Z,33.92
2022-08-01T09:39:16.037Z,34.70
2022-08-01T09:41:43.195Z,34.34
2022-08-01T09:44:10.488Z,34.03
2022-08-01T09:46:54.080Z,33.93
2022-08-01T09:49:50.998Z,34.10
2022-08-01T09:52:26.084Z,33.91
2022-08-01T09:55:02.282Z,33.36
2022-08-01T09:57:31.069Z,33.01
2022-08-01T10:00:01.856Z,32.82
2022-08-01T10:02:41.822Z,33.54
2022-08-01T10:05:18.921Z,33.49
2022-08-01T10:08:07.620Z,33.28
2022-08-01T10:10:37.455Z,32.96
2022-08-01T10:13:05.623Z,32.44
2022-08-01T10:15:36.538Z,32.69
2022-08-01T10:18:16.355Z,32.70
2022-08-01T10:20:56.445Z,32.82
2022-08-01T10:23:39.733Z,32.56
2022-08-01T10:26:09.300Z,32.48
2022-08-01T10:28:38.638Z,32.42
2022-08-01T10:31:12.641Z,32.46
2022-08-01T10:33:50.457Z,32.48
2022-08-01T10:36:26.107Z,32.29
2022-08-01T10:38:56.392Z,32.65
2022-08-01T10:41:25.338Z,32.83
2022-08-01T10:43:54.876Z,32.66
2022-08-01T10:46:22.744Z,32.62
2022-08-01T10:48:58.811Z,33.21
2022-08-01T10:51:51.571Z,32.74
2022-08-01T10:54:15.863Z,32.38
2022-08-01T10:56:51.807Z,32.11
2022-08-01T10:59:50.181Z,32.18
2022-08-01T11:02:32.134Z,32.12
2022-08-01T11:05:05.744Z,32.37
2022-08-01T11:07:45.717Z,31.82
2022-08-01T11:10:41.847Z,31.46
2022-08-01T11:13:13.605Z,30.95
2022-08-01T11:15:50.344Z,31.03
2022-08-01T11:18:38.317Z,31.25
2022-08-01T11:21:57.686Z,31.25
2022-08-01T11:23:54.735Z,31.15
2022-08-01T11:26:29.084Z,31.21
2022-08-01T11:29:23.219Z,30.97
2022-08-01T11:31:51.535Z,31.10
2022-08-01T11:34:18.970Z,31.21
2022-08-01T11:37:03.145Z,31.21
2022-08-01T11:39:31.840Z,31.20
2022-08-01T11:42:19.431Z,31.10
2022-08-01T11:44:52.612Z,31.00
2022-08-01T11:47:40.049Z,31.23
2022-08-01T11:50:07.915Z,31.28
2022-08-01T11:52:37.383Z,31.62
2022-08-01T11:55:04.576Z,31.39
2022-08-01T11:57:39.027Z,30.85
2022-08-01T12:00:15.550Z,31.03
2022-08-01T12:02:46.296Z,31.17
2022-08-01T12:05:16.105Z,31.30
2022-08-01T12:07:46.034Z,31.09
2022-08-01T12:10:16.554Z,30.77
2022-08-01T12:12:45.340Z,30.79
2022-08-01T12:15:13.413Z,30.77
2022-08-01T12:17:45.865Z,30.68
2022-08-01T12:20:29.820Z,31.02
2022-08-01T12:23:07.009Z,31.69
2022-08-01T12:25:34.919Z,32.11
2022-08-01T12:28:04.636Z,32.39
2022-08-01T12:30:36.352Z,32.85
2022-08-01T12:33:10.261Z,32.26
2022-08-01T12:35:39.706Z,32.39
2022-08-01T12:38:15.508Z,31.95
2022-08-01T12:40:45.861Z,31.76
2022-08-01T12:43:21.270Z,31.36
2022-08-01T12:45:59.508Z,31.30
2022-08-01T12:48:27.967Z,31.58
2022-08-01T12:50:58.931Z,31.97
2022-08-01T12:53:26.997Z,31.95
2022-08-01T12:55:58.359Z,32.16
2022-08-01T12:58:36.294Z,32.07
2022-08-01T13:01:06.750Z,31.87
2022-08-01T13:03:34.086Z,31.81
2022-08-01T13:06:02.137Z,31.58
2022-08-01T13:08:34.550Z,31.31
2022-08-01T13:11:15.838Z,31.47
2022-08-01T13:13:48.501Z,31.00
2022-08-01T13:16:30.167Z,30.87
2022-08-01T13:19:07.110Z,30.84
2022-08-01T13:21:53.721Z,31.79
2022-08-01T13:24:29.881Z,33.11
2022-08-01T13:27:04.279Z,33.17
2022-08-01T13:29:33.603Z,33.88
2022-08-01T13:32:13.047Z,34.44
2022-08-01T13:35:06.131Z,34.53
2022-08-01T13:37:33.722Z,34.56
2022-08-01T13:40:00.976Z,34.73
2022-08-01T13:42:30.406Z,34.41
2022-08-01T13:44:57.731Z,34.26
2022-08-01T13:47:31.695Z,33.91
2022-08-01T13:50:04.156Z,33.63
2022-08-01T13:52:32.700Z,33.30
2022-08-01T13:55:02.613Z,33.28
2022-08-01T13:57:36.813Z,33.53
2022-08-01T14:00:09.710Z,33.83
2022-08-01T14:02:39.728Z,33.83
2022-08-01T14:05:07.493Z,33.69
2022-08-01T14:07:34.847Z,33.92
2022-08-01T14:10:18.299Z,33.40
2022-08-01T14:12:48.930Z,33.11
2022-08-01T14:15:36.560Z,32.92
2022-08-01T14:18:05.866Z,33.20
2022-08-01T14:20:34.857Z,33.79
2022-08-01T14:23:02.390Z,34.15
2022-08-01T14:26:05.499Z,34.33
2022-08-01T14:28:17.376Z,34.24
2022-08-01T14:30:44.833Z,34.42
2022-08-01T14:33:13.415Z,34.76
2022-08-01T14:36:06.115Z,34.80
2022-08-01T14:38:31.117Z,34.92
2022-08-01T14:41:00.469Z,34.64
2022-08-01T14:43:32.887Z,34.37
2022-08-01T14:46:01.580Z,34.81
2022-08-01T14:48:30.143Z,34.32
2022-08-01T14:50:58.593Z,34.17
2022-08-01T14:53:26.086Z,34.09
2022-08-01T14:55:53.296Z,34.07
2022-08-01T14:58:20.390Z,34.15
2022-08-01T15:00:48.160Z,34.58
2022-08-01T15:03:15.464Z,34.46
2022-08-01T15:05:42.715Z,34.08
2022-08-01T15:08:09.966Z,34.20
2022-08-01T15:10:37.320Z,34.19
2022-08-01T15:13:04.571Z,34.52
2022-08-01T15:15:32.034Z,34.84
2022-08-01T15:17:59.484Z,36.13
2022-08-01T15:20:28.172Z,36.67
2022-08-01T15:22:55.523Z,37.11
2022-08-01T15:25:22.718Z,38.06
2022-08-01T15:27:49.926Z,38.42
2022-08-01T15:30:17.177Z,38.73
2022-08-01T15:32:51.115Z,39.41
2022-08-01T15:35:18.751Z,39.12
2022-08-01T15:37:46.021Z,39.16
2022-08-01T15:40:13.356Z,39.64
2022-08-01T15:42:40.822Z,39.67
2022-08-01T15:45:20.631Z,39.63
2022-08-01T15:47:56.515Z,39.65
2022-08-01T15:50:23.765Z,39.67
2022-08-01T15:52:50.919Z,39.94
2022-08-01T15:55:18.270Z,40.02
2022-08-01T15:57:45.522Z,40.25
2022-08-01T16:00:13.564Z,39.84
2022-08-01T16:02:41.664Z,40.14
2022-08-01T16:05:09.631Z,40.28
2022-08-01T16:07:37.190Z,40.53
2022-08-01T16:10:24.415Z,40.65
2022-08-01T16:12:51.611Z,40.33
2022-08-01T16:15:18.917Z,40.25
2022-08-01T16:17:46.166Z,40.28
2022-08-01T16:20:13.368Z,40.30
2022-08-01T16:22:40.569Z,40.30
2022-08-01T16:25:08.180Z,40.28
2022-08-01T16:27:35.380Z,40.58
2022-08-01T16:30:06.849Z,40.59
2022-08-01T16:32:37.588Z,40.32
2022-08-01T16:35:13.455Z,41.01
2022-08-01T16:37:41.283Z,40.84
2022-08-01T16:40:09.047Z,40.75
2022-08-01T16:42:36.304Z,40.68
2022-08-01T16:45:12.816Z,41.27
2022-08-01T16:47:42.273Z,41.45
2022-08-01T16:50:12.289Z,41.38
2022-08-01T16:52:41.977Z,41.62
2022-08-01T16:55:11.447Z,41.61
2022-08-01T16:57:38.760Z,41.78
2022-08-01T17:00:21.161Z,41.97
2022-08-01T17:02:48.835Z,42.01
2022-08-01T17:05:16.385Z,42.08
2022-08-01T17:07:44.047Z,42.52
2022-08-01T17:10:12.116Z,42.51
2022-08-01T17:12:40.411Z,43.04
2022-08-01T17:15:08.773Z,43.72
2022-08-01T17:17:36.232Z,43.88
2022-08-01T17:20:04.094Z,44.17
2022-08-01T17:22:31.245Z,44.60
2022-08-01T17:24:58.453Z,44.51
2022-08-01T17:27:25.663Z,44.50
2022-08-01T17:29:53.103Z,44.47
2022-08-01T17:32:20.459Z,44.65
2022-08-01T17:34:47.710Z,45.64
2022-08-01T17:37:14.864Z,45.53
2022-08-01T17:39:42.110Z,45.81
2022-08-01T17:42:11.052Z,46.83
2022-08-01T17:44:38.976Z,47.40
2022-08-01T17:47:09.099Z,46.64
2022-08-01T17:49:54.283Z,47.12
2022-08-01T17:52:22.640Z,47.06
2022-08-01T17:54:49.994Z,46.93
2022-08-01T17:57:17.143Z,46.95
2022-08-01T17:59:45.240Z,47.20
2022-08-01T18:02:12.467Z,47.35
2022-08-01T18:04:44.099Z,47.86
2022-08-01T18:07:12.796Z,48.06
2022-08-01T18:09:45.532Z,47.79
2022-08-01T18:12:14.007Z,48.54
2022-08-01T18:14:43.840Z,48.57
2022-08-01T18:17:12.775Z,48.86
2022-08-01T18:19:40.536Z,48.60
2022-08-01T18:22:31.361Z,48.95
2022-08-01T18:24:55.112Z,49.01
2022-08-01T18:27:22.262Z,49.17
2022-08-01T18:29:49.410Z,49.45
2022-08-01T18:32:16.662Z,49.77
2022-08-01T18:34:43.751Z,49.22
2022-08-01T18:37:14.014Z,48.45
2022-08-01T18:39:43.813Z,48.03
2022-08-01T18:42:11.305Z,47.91
2022-08-01T18:44:38.457Z,47.98
2022-08-01T18:47:06.029Z,48.35
2022-08-01T18:49:33.606Z,48.72
2022-08-01T18:52:01.031Z,48.69
2022-08-01T18:54:28.297Z,49.01
2022-08-01T18:56:55.489Z,49.08
2022-08-01T18:59:22.888Z,49.84
2022-08-01T19:01:50.208Z,49.56
2022-08-01T19:04:17.542Z,50.40
2022-08-01T19:06:47.513Z,51.39
2022-08-01T19:09:20.318Z,50.39
2022-08-01T19:11:48.158Z,49.51
2022-08-01T19:14:15.614Z,49.51
2022-08-01T19:16:42.866Z,49.35
2022-08-01T19:19:10.017Z,49.12
2022-08-01T19:21:42.941Z,49.57
2022-08-01T19:24:23.444Z,49.67
2022-08-01T19:26:59.675Z,49.80
2022-08-01T19:29:37.939Z,50.12
2022-08-01T19:32:09.076Z,50.47
2022-08-01T19:34:44.193Z,51.06
2022-08-01T19:37:11.778Z,51.84
2022-08-01T19:39:43.959Z,51.17
2022-08-01T19:42:13.009Z,50.29
2022-08-01T19:44:40.703Z,50.04
2022-08-01T19:47:09.860Z,50.10
2022-08-01T19:49:37.713Z,50.20
2022-08-01T19:52:05.895Z,49.84
2022-08-01T19:54:38.047Z,50.59
2022-08-01T19:57:07.299Z,50.31
2022-08-01T19:59:35.995Z,50.10
2022-08-01T20:02:04.317Z,50.03
2022-08-01T20:04:33.780Z,50.35
2022-08-01T20:07:01.130Z,51.02
2022-08-01T20:09:28.890Z,50.48
2022-08-01T20:11:56.388Z,49.47
2022-08-01T20:14:26.876Z,49.15
2022-08-01T20:16:56.687Z,48.69
2022-08-01T20:19:25.985Z,48.83
2022-08-01T20:22:08.095Z,48.74
2022-08-01T20:24:43.446Z,48.85
2022-08-01T20:27:12.950Z,48.99
2022-08-01T20:29:41.515Z,49.00
2022-08-01T20:32:09.487Z,48.92
2022-08-01T20:34:38.786Z,49.11
2022-08-01T20:37:13.318Z,49.74
2022-08-01T20:39:44.933Z,50.62
2022-08-01T20:42:15.040Z,49.96
2022-08-01T20:44:43.665Z,49.56
2022-08-01T20:47:11.556Z,49.08
2022-08-01T20:49:39.209Z,48.82
2022-08-01T20:52:12.160Z,48.63
2022-08-01T20:54:41.991Z,48.87
2022-08-01T20:57:22.153Z,48.68
2022-08-01T21:00:02.305Z,49.03
2022-08-01T21:02:38.689Z,49.10
2022-08-01T21:05:07.044Z,49.16
2022-08-01T21:07:50.377Z,49.19
2022-08-01T21:10:20.803Z,49.99
2022-08-01T21:13:06.391Z,50.47
2022-08-01T21:16:11.155Z,49.55
2022-08-01T21:19:18.664Z,48.94
2022-08-01T21:22:10.328Z,48.53
2022-08-01T21:24:58.762Z,48.41
2022-08-01T21:27:33.497Z,48.54
2022-08-01T21:30:04.860Z,48.25
2022-08-01T21:32:34.368Z,48.26
2022-08-01T21:35:03.822Z,48.82
2022-08-01T21:37:31.738Z,48.88
2022-08-01T21:40:09.514Z,50.05
2022-08-01T21:42:39.660Z,51.18
2022-08-01T21:45:09.861Z,51.96
2022-08-01T21:47:38.253Z,51.41
2022-08-01T21:50:06.534Z,50.80
2022-08-01T21:52:50.530Z,50.58
2022-08-01T21:56:14.616Z,51.30
2022-08-01T21:58:55.018Z,51.11
2022-08-01T22:01:50.829Z,51.68
2022-08-01T22:04:38.571Z,52.95
2022-08-01T22:07:11.464Z,52.74
2022-08-01T22:09:46.000Z,53.31
2022-08-01T22:12:17.888Z,52.12
2022-08-01T22:14:48.947Z,51.45
2022-08-01T22:17:24.735Z,51.43
2022-08-01T22:19:55.509Z,51.11
2022-08-01T22:22:44.874Z,51.09
2022-08-01T22:25:12.501Z,50.83
2022-08-01T22:28:06.222Z,51.03
2022-08-01T22:30:30.395Z,52.30
2022-08-01T22:33:15.166Z,52.82
2022-08-01T22:35:46.763Z,51.81
2022-08-01T22:38:17.142Z,51.14
2022-08-01T22:41:00.936Z,50.83
2022-08-01T22:44:00.445Z,50.71
2022-08-01T22:46:34.085Z,50.85
2022-08-01T22:49:11.785Z,50.99
2022-08-01T22:51:55.375Z,51.01
2022-08-01T22:54:36.159Z,51.16
2022-08-01T22:57:07.576Z,51.85
2022-08-01T22:59:59.643Z,52.61
2022-08-01T23:02:29.136Z,51.67
2022-08-01T23:05:04.538Z,50.87
2022-08-01T23:07:38.889Z,50.64
2022-08-01T23:10:07.646Z,50.76
2022-08-01T23:12:35.139Z,50.75
2022-08-01T23:15:02.718Z,50.76
2022-08-01T23:17:31.603Z,50.66
2022-08-01T23:20:01.460Z,50.83
2022-08-01T23:22:32.221Z,51.44
2022-08-01T23:25:05.336Z,51.99
2022-08-01T23:27:55.738Z,51.39
2022-08-01T23:30:31.615Z,50.57
2022-08-01T23:32:59.654Z,50.50
2022-08-01T23:35:27.717Z,50.22
2022-08-01T23:38:02.840Z,50.97
2022-08-01T23:40:35.124Z,51.18
2022-08-01T23:43:04.423Z,51.54
2022-08-01T23:45:36.146Z,51.82
2022-08-01T23:48:20.317Z,52.52
2022-08-01T23:50:47.531Z,53.34
2022-08-01T23:53:14.735Z,53.24
2022-08-01T23:55:43.320Z,52.36
2022-08-01T23:58:12.004Z,52.27
